Terminal Aerodrome Forecast
Issued by NWS

Home | Current Version | Previous Version | Graphics & Text | Print | Product List | Glossary On
Versions: 1 2 3 4 5 6 7 8 9 10 11 12 13 14 15 16 17 18 19 20
000
FTUS43 KGRB 151100
TAFRHI
TAF
KRHI 151125Z 1512/1612 29005KT P6SM BKN045
     FM151500 28009G15KT P6SM BKN045
     FM152200 27006KT P6SM SCT200
     FM160400 12003KT P6SM BKN120
     FM160700 12004KT P6SM OVC080
     FM161000 12008KT P6SM -SN SCT025 OVC040
      TEMPO 1610/1612 3SM -SN BKN020=

USA.gov is the U.S. government's official web portal to all federal, state and local government web resources and services.